Terminal Aerodrome Forecast
Issued by NWS Louisville, KY

Home | Current Version | Previous Version | Text Only | Print | Product List | Glossary On
Versions: 1 2 3 4 5 6 7 8 9 10 11 12 13 14 15 16 17 18 19 20 21 22
214
FTUS43 KLMK 281533 AAB
TAFSDF
TAF AMD
KSDF 281533Z 2816/2918 33006KT P6SM OVC016
     FM281900 35006KT P6SM OVC026
     FM290000 01006KT P6SM OVC035
     FM290600 05007KT P6SM BKN025=

USA.gov is the U.S. government's official web portal to all federal, state and local government web resources and services.